Latest Coastal Weather Observations for Moorabbin Airport

IDV60701

Issued at 12:11 pm EDT Tuesday 27 January 2015 (issued every 10 minutes, with the page automatically refreshed every 10 minutes)

About coastal observations | Map of coastal stations | Coastal observations for VIC | Marine services | Other Formats
Station Details ID: 086077 Name: MOORABBIN AIRPORT Lat: -37.98 Lon: 145.10 Height: 12.1 m
Data from the previous 72 hours. | See also: Recent months at Moorabbin Airport
Date/Time
EDT
Temp

°C
Wind Pressure Rain
since 9am
mm
Weather Cloud Vis
km
Sea
Height
m
Swell
Dir
 
Speed
knots
Gust
knots
hPa Trend Height
m
Period
s
Dir
27/12:00pm 17.4 SSE 13 18 1017.4 - 0.0 - Mostly cloudy 10 - - - -
27/11:30am 17.8 S 12 16 1017.4 - 0.0 - Partly cloudy 10 - - - -
27/11:00am 17.9 SSE 12 17 1017.4 - 0.0 - Cloudy 10 - - - -
27/10:30am 17.7 SE 13 17 1017.4 - 0.0 - Partly cloudy 10 - - - -
27/10:00am 17.2 SE 14 19 1017.5 - 0.0 - Cloudy 10 - - - -
27/09:30am 16.6 SE 13 17 1017.4 - 0.0 - Partly cloudy 10 - - - -
27/09:00am 16.0 SE 13 17 1017.4 - 0.0 - Cloudy 10 - - - -
27/08:30am 15.4 SE 11 16 1017.0 - 0.0 - Cloudy 10 - - - -
27/08:00am 14.7 SE 10 13 1016.9 - 0.0 - Cloudy 10 - - - -
27/07:30am 14.0 S 5 7 1016.7 - 0.0 - Cloudy 10 - - - -
27/07:00am 13.3 S 7 8 1016.5 - 0.0 - Cloudy 10 - - - -
27/06:30am 12.8 SSE 7 10 1016.3 - 0.0 - Cloudy 10 - - - -
27/06:00am 11.6 S 6 8 1016.3 - 0.0 - Mostly cloudy 10 - - - -
27/05:30am 10.0 S 4 5 1016.2 - 0.0 - - 10 - - - -
27/05:00am 9.8 SSE 3 4 1016.1 - 0.0 - - 10 - - - -
27/04:30am 10.5 S 6 7 1016.1 - 0.0 - - 10 - - - -
27/04:00am 10.0 S 6 8 1016.3 - 0.0 - - 10 - - - -
27/03:30am 10.4 SSE 5 6 1016.6 - 0.0 - - 10 - - - -
27/03:00am 9.9 SE 4 5 1016.6 - 0.0 - - 10 - - - -
27/02:30am 10.6 SSE 5 5 1016.7 - 0.0 - - 10 - - - -
27/02:00am 11.2 SSE 6 7 1017.0 - 0.0 - - 10 - - - -
27/01:30am 11.3 SSE 5 6 1017.3 - 0.0 - - 10 - - - -
27/01:00am 11.5 SE 5 6 1017.4 - 0.0 - - 10 - - - -
27/12:30am 12.0 SE 7 8 1017.6 - 0.0 - - 10 - - - -
27/12:00am 12.8 ESE 9 11 1017.7 - 0.0 - - 35 - - - -
 
Date/Time
EDT
Temp

°C
Wind Pressure Rain
since 9am
mm
Weather Cloud Vis
km
Sea
Height
m
Swell
Dir
 
Speed
knots
Gust
knots
hPa Trend Height
m
Period
s
Dir
26/11:30pm 12.3 SSE 5 8 1017.7 - 0.0 - - 10 - - - -
26/11:00pm 13.1 SSE 7 8 1017.9 - 0.0 - - 10 - - - -
26/10:30pm 13.3 SE 7 10 1018.0 - 0.0 - - 10 - - - -
26/10:00pm 14.1 SE 9 12 1017.8 - 0.0 - - 10 - - - -
26/09:30pm 14.1 SE 8 11 1017.6 - 0.0 - - 10 - - - -
26/09:00pm 15.1 SSE 11 16 1017.3 - 0.0 - - 10 - - - -
26/08:30pm 15.5 SSE 13 19 1017.2 - 0.0 - - 10 - - - -
26/08:00pm 16.0 SSE 13 19 1017.0 - 0.0 - - 10 - - - -
26/07:30pm 16.8 S 13 17 1016.5 - 0.0 - Partly cloudy 10 - - - -
26/07:00pm 17.6 S 13 19 1016.2 - 0.0 - Partly cloudy 10 - - - -
26/06:30pm 17.6 S 15 21 1016.0 - 0.0 - Partly cloudy 10 - - - -
26/06:00pm 18.5 SSW 16 22 1015.8 - 0.0 - Cloudy 10 - - - -
26/05:30pm 18.4 S 15 20 1015.8 - 0.0 - Cloudy 10 - - - -
26/05:00pm 18.1 S 16 19 1016.0 - 0.0 - Partly cloudy 10 - - - -
26/04:30pm 18.5 S 15 20 1015.9 - 0.0 - Partly cloudy 10 - - - -
26/04:00pm 19.3 S 13 17 1015.9 - 0.0 - Partly cloudy 10 - - - -
26/03:30pm 19.5 SSW 13 18 1016.0 - 0.0 - Cloudy 10 - - - -
26/03:00pm 18.6 SSW 13 18 1016.0 - 0.0 - Cloudy 10 - - - -
26/02:30pm 18.4 SSW 11 17 1016.1 - 0.0 - Partly cloudy 10 - - - -
26/02:00pm 18.2 SSW 11 16 1016.3 - 0.0 - Cloudy 10 - - - -
26/01:30pm 17.9 SSW 13 18 1016.5 - 0.0 - Cloudy 10 - - - -
26/01:00pm 17.6 SSW 10 15 1016.7 - 0.0 - Partly cloudy 10 - - - -
26/12:30pm 17.9 S 11 15 1016.7 - 0.0 - Partly cloudy 10 - - - -
26/12:00pm 17.4 S 8 13 1016.8 - 0.0 - Cloudy 10 - - - -
26/11:30am 16.5 SW 7 10 1016.8 - 0.0 - Cloudy 10 - - - -
26/11:00am 16.3 WNW 6 8 1016.9 - 0.0 - Partly cloudy 10 - - - -
26/10:30am 15.1 NW 6 9 1017.0 - 0.0 - Partly cloudy 10 - - - -
26/10:00am 14.2 NNW 5 6 1016.8 - 0.0 - Cloudy 10 - - - -
26/09:30am 13.5 NW 6 7 1016.9 - 0.0 - Partly cloudy 10 - - - -
26/09:00am 13.3 NW 5 6 1016.6 - 2.4 - Cloudy 10 - - - -
26/08:30am 12.2 NNW 8 9 1016.5 - 2.4 - Partly cloudy 10 - - - -
26/08:00am 11.9 NNW 7 9 1016.2 - 2.4 - Partly cloudy 10 - - - -
26/07:30am 11.8 NW 7 9 1015.6 - 1.6 - Partly cloudy 8 - - - -
26/07:00am 12.1 NNW 6 8 1015.2 - 1.0 - Cloudy 10 - - - -
26/06:30am 11.9 NNW 8 10 1015.1 - 0.8 - Partly cloudy 10 - - - -
26/06:00am 12.3 NNE 6 7 1014.8 - 0.8 - Cloudy 10 - - - -
26/05:30am 12.6 CALM 0 3 1014.5 - 0.8 - Partly cloudy 10 - - - -
26/05:00am 12.2 S 7 11 1014.3 - 0.8 - Partly cloudy 10 - - - -
26/04:43am 12.0 SE 9 13 1014.4 - 0.6 - Partly cloudy 8 - - - -
26/04:32am 12.0 SSE 11 16 1014.3 - 0.6 - Partly cloudy 5 - - - -
26/04:30am 12.3 SSE 11 16 1014.3 - 0.4 - Partly cloudy 7 - - - -
26/04:00am 13.3 ENE 7 8 1013.7 - 0.0 - Partly cloudy 10 - - - -
26/03:30am 13.7 NNE 5 7 1013.7 - 0.0 - Partly cloudy 10 - - - -
26/03:00am 13.7 NE 4 5 1013.7 - 0.0 - Cloudy 10 - - - -
26/02:30am 14.3 SW 7 10 1013.5 - 0.0 - Partly cloudy 10 - - - -
26/02:00am 14.3 WSW 7 11 1013.4 - 0.0 - Partly cloudy 10 - - - -
26/01:30am 14.6 WSW 8 11 1013.5 - 0.0 - Partly cloudy 10 - - - -
26/01:00am 14.7 WSW 8 12 1013.5 - 0.0 - - 10 - - - -
26/12:30am 14.8 WSW 9 14 1013.5 - 0.0 - Partly cloudy 10 - - - -
26/12:00am 15.0 SW 10 15 1013.5 - 0.0 - - 10 - - - -
 
Date/Time
EDT
Temp

°C
Wind Pressure Rain
since 9am
mm
Weather Cloud Vis
km
Sea
Height
m
Swell
Dir
 
Speed
knots
Gust
knots
hPa Trend Height
m
Period
s
Dir
25/11:30pm 15.4 SW 12 17 1013.3 - 0.0 - - 10 - - - -
25/11:00pm 16.0 SW 9 14 1013.2 - 0.0 - Partly cloudy 10 - - - -
25/10:30pm 15.9 SW 9 15 1013.2 - 0.0 - Partly cloudy 10 - - - -
25/10:00pm 16.1 SSW 11 16 1013.0 - 0.0 - Partly cloudy 10 - - - -
25/09:30pm 16.5 SSW 11 15 1012.7 - 0.0 - Partly cloudy 10 - - - -
25/09:00pm 16.4 SSW 12 17 1012.4 - 0.0 - Mostly cloudy 10 - - - -
25/08:30pm 16.6 SSW 13 17 1012.0 - 0.0 - Partly cloudy 10 - - - -
25/08:00pm 16.5 SSW 11 15 1011.9 - 0.0 - Partly cloudy 10 - - - -
25/07:30pm 17.1 SSW 12 17 1011.4 - 0.0 - Partly cloudy 10 - - - -
25/07:00pm 16.9 SSW 14 23 1011.2 - 0.0 - Partly cloudy 10 - - - -
25/06:30pm 17.4 SSW 15 21 1010.7 - 0.0 - Partly cloudy 10 - - - -
25/06:00pm 17.4 SSW 15 24 1010.5 - 0.0 - Cloudy 10 - - - -
25/05:30pm 18.4 SW 17 24 1010.2 - 0.0 - Partly cloudy 10 - - - -
25/05:21pm 17.7 SSW 17 27 1010.2 - 0.0 - Partly cloudy 10 - - - -
25/05:00pm 19.0 SSW 18 26 1009.8 - 0.0 - Partly cloudy 10 - - - -
25/04:30pm 18.7 SSW 18 25 1009.6 - 0.0 - Partly cloudy 10 - - - -
25/04:00pm 19.0 SSW 17 23 1009.4 - 0.0 - Partly cloudy 10 - - - -
25/03:30pm 20.6 SW 15 25 1009.1 - 0.0 - Partly cloudy 10 - - - -
25/03:28pm 21.0 SW 14 25 1009.1 - 0.0 - Partly cloudy 10 - - - -
25/03:00pm 20.6 WSW 13 21 1008.9 - 0.0 - Mostly clear 10 - - - -
25/02:30pm 19.8 SW 18 25 1009.0 - 0.0 - Partly cloudy 10 - - - -
25/02:14pm 20.9 WSW 15 25 1008.7 - 0.0 - - 10 - - - -
25/02:00pm 21.2 WSW 14 21 1008.4 - 0.0 - Partly cloudy 10 - - - -
25/01:30pm 19.4 WSW 16 23 1008.7 - 0.0 - Partly cloudy 10 - - - -
25/01:00pm 20.0 W 13 21 1008.5 - 0.0 - Partly cloudy 10 - - - -
25/12:30pm 18.5 W 11 19 1008.5 - 0.0 - Partly cloudy 10 - - - -
25/12:00pm 18.1 WSW 13 19 1008.6 - 0.0 - Mostly cloudy 10 - - - -
25/11:30am 19.1 WSW 14 23 1008.3 - 0.0 - Partly cloudy 10 - - - -
25/11:00am 18.3 W 12 18 1008.1 - 0.0 - Partly cloudy 10 - - - -
25/10:30am 18.3 W 13 18 1008.0 - 0.0 - Partly cloudy 10 - - - -
25/10:00am 17.4 W 13 21 1007.8 - 0.0 - Partly cloudy 10 - - - -
25/09:30am 17.2 WSW 11 16 1007.2 - 0.0 - Partly cloudy 10 - - - -
25/09:00am 15.8 W 11 19 1007.1 - 0.0 - Cloudy 10 - - - -
25/08:30am 16.1 W 9 14 1006.9 - 0.0 - Partly cloudy 10 - - - -
25/08:00am 15.8 W 11 18 1006.4 - 0.0 - Partly cloudy 10 - - - -
25/07:30am 15.9 W 9 15 1006.0 - 0.0 - Partly cloudy 10 - - - -
25/07:00am 15.7 WNW 11 15 1005.7 - 0.0 - Partly cloudy 10 - - - -
25/06:30am 15.6 W 12 19 1005.2 - 0.0 - Partly cloudy 10 - - - -
25/06:11am 15.5 W 14 21 1004.6 - 0.0 - Partly cloudy 10 - - - -
25/06:01am 15.1 W 14 23 1004.5 - 0.0 - Partly cloudy 5 - - - -
25/06:00am 15.0 W 14 24 1004.6 - 0.0 - Cloudy 5 - - - -
25/05:54am 15.2 W 15 25 1004.5 - 0.0 - Partly cloudy 5 - - - -
25/05:51am 15.3 W 16 25 1004.5 - 0.0 - Partly cloudy 5 - - - -
25/05:32am 16.2 W 17 27 1004.2 - 0.0 - Partly cloudy 10 - - - -
25/05:30am 16.3 W 17 26 1004.1 - 0.0 - Partly cloudy 10 - - - -
25/05:29am 16.4 W 18 28 1004.0 - 0.0 - Partly cloudy 10 - - - -
25/05:19am 17.2 W 17 28 1003.7 - 0.0 - Partly cloudy 10 - - - -
25/05:00am 18.4 WNW 9 13 1003.4 - 0.0 - Partly cloudy 10 - - - -
25/04:30am 17.4 NNW 7 10 1002.6 - 0.0 - Partly cloudy 10 - - - -
25/04:00am 17.7 NNW 6 9 1002.6 - 0.0 - Cloudy 10 - - - -
25/03:30am 17.7 N 6 7 1002.3 - 0.0 - Partly cloudy 10 - - - -
25/03:00am 17.8 N 5 6 1002.4 - 0.0 - Partly cloudy 10 - - - -
25/02:30am 18.1 N 5 6 1002.5 - 0.0 - Partly cloudy 10 - - - -
25/02:00am 17.9 NNW 4 5 1003.1 - 0.0 - Cloudy 10 - - - -
25/01:30am 17.2 N 3 4 1003.0 - 0.0 - Partly cloudy 10 - - - -
25/01:00am 17.4 ENE 3 4 1003.2 - 0.0 - Partly cloudy 10 - - - -
25/12:30am 16.9 SE 5 6 1003.4 - 0.0 - - 10 - - - -
25/12:00am 17.5 SSW 4 9 1003.4 - 0.0 - - 10 - - - -
 
Date/Time
EDT
Temp

°C
Wind Pressure Rain
since 9am
mm
Weather Cloud Vis
km
Sea
Height
m
Swell
Dir
 
Speed
knots
Gust
knots
hPa Trend Height
m
Period
s
Dir
24/11:30pm 17.3 SSE 4 5 1003.5 - 0.0 - - 10 - - - -
24/11:00pm 17.6 S 4 6 1003.7 - 0.0 - - 10 - - - -
24/10:30pm 17.5 SSE 3 6 1003.9 - 0.0 - - 10 - - - -
24/10:00pm 18.3 S 6 9 1003.6 - 0.0 - - 10 - - - -
24/09:30pm 18.9 SSE 8 11 1003.3 - 0.0 - - 10 - - - -
24/09:00pm 19.3 SSE 8 11 1003.3 - 0.0 - - 10 - - - -
24/08:30pm 20.2 SSE 11 14 1002.5 - 0.0 - - 10 - - - -
24/08:00pm 21.4 SE 12 16 1002.2 - 0.0 - - 10 - - - -
24/07:30pm 23.0 SSE 12 15 1001.6 - 0.0 - - 10 - - - -
24/07:00pm 24.2 SSE 12 14 1001.3 - 0.0 - - 10 - - - -
24/06:30pm 24.8 S 10 17 1001.0 - 0.0 - - 10 - - - -
24/06:00pm 23.7 SW 14 17 1001.2 - 0.0 - - 10 - - - -
24/05:30pm 24.5 SSW 14 19 1001.3 - 0.0 - - 10 - - - -
24/05:00pm 25.9 SSW 11 14 1001.1 - 0.0 - - 10 - - - -
24/04:30pm 25.4 S 11 13 1001.5 - 0.0 - - 10 - - - -
24/04:00pm 25.0 S 11 13 1001.9 - 0.0 - - 10 - - - -
24/03:30pm 25.3 S 10 14 1002.2 - 0.0 - - 10 - - - -
24/03:00pm 24.5 SSW 12 15 1002.6 - 0.0 - - 10 - - - -
24/02:30pm 24.5 S 11 15 1002.8 - 0.0 - - 10 - - - -
24/02:00pm 24.4 SSW 12 15 1003.4 - 0.0 - - 10 - - - -
24/01:30pm 23.4 SW 12 17 1003.8 - 0.0 - - 10 - - - -
24/01:00pm 23.7 SW 11 14 1004.0 - 0.0 - - 10 - - - -
24/12:30pm 23.0 SSW 9 12 1004.3 - 0.0 - - 10 - - - -

Other Formats:

Comma delimited format used in spreadsheet applications
http://www.bom.gov.au/fwo/IDV60701/IDV60701.94870.axf

JavaScript Object Notation format (JSON) in row-major order
http://www.bom.gov.au/fwo/IDV60701/IDV60701.94870.json